sensor_id;sensor_type;location;lat;lon;timestamp;temperature;humidity
22436;DHT22;11385;50.822;4.324;2022-11-10T00:01:28;11.30;99.90
22436;DHT22;11385;50.822;4.324;2022-11-10T00:03:55;11.20;99.90
22436;DHT22;11385;50.822;4.324;2022-11-10T00:06:23;11.10;99.90
22436;DHT22;11385;50.822;4.324;2022-11-10T00:08:51;11.00;99.90
22436;DHT22;11385;50.822;4.324;2022-11-10T00:11:17;11.00;99.90
22436;DHT22;11385;50.822;4.324;2022-11-10T00:13:46;11.00;99.90
22436;DHT22;11385;50.822;4.324;2022-11-10T00:16:19;11.00;99.90
22436;DHT22;11385;50.822;4.324;2022-11-10T00:18:53;11.20;99.90
22436;DHT22;11385;50.822;4.324;2022-11-10T00:21:20;11.30;99.90
22436;DHT22;11385;50.822;4.324;2022-11-10T00:23:46;11.40;99.90
22436;DHT22;11385;50.822;4.324;2022-11-10T00:26:18;11.50;99.90
22436;DHT22;11385;50.822;4.324;2022-11-10T00:28:45;11.50;99.90
22436;DHT22;11385;50.822;4.324;2022-11-10T00:31:13;11.60;99.90
22436;DHT22;11385;50.822;4.324;2022-11-10T00:33:44;11.60;99.90
22436;DHT22;11385;50.822;4.324;2022-11-10T00:36:11;11.60;99.90
22436;DHT22;11385;50.822;4.324;2022-11-10T00:38:37;11.60;99.90
22436;DHT22;11385;50.822;4.324;2022-11-10T00:41:04;11.60;99.90
22436;DHT22;11385;50.822;4.324;2022-11-10T00:43:31;11.60;99.90
22436;DHT22;11385;50.822;4.324;2022-11-10T00:45:58;11.60;99.90
22436;DHT22;11385;50.822;4.324;2022-11-10T00:48:25;11.50;99.90
22436;DHT22;11385;50.822;4.324;2022-11-10T00:50:55;11.40;99.90
22436;DHT22;11385;50.822;4.324;2022-11-10T00:53:21;11.40;99.90
22436;DHT22;11385;50.822;4.324;2022-11-10T00:55:48;11.40;99.90
22436;DHT22;11385;50.822;4.324;2022-11-10T00:58:15;11.50;99.90
22436;DHT22;11385;50.822;4.324;2022-11-10T01:00:41;11.60;99.90
22436;DHT22;11385;50.822;4.324;2022-11-10T01:03:12;11.60;99.90
22436;DHT22;11385;50.822;4.324;2022-11-10T01:05:40;11.70;99.90
22436;DHT22;11385;50.822;4.324;2022-11-10T01:08:08;11.80;99.90
22436;DHT22;11385;50.822;4.324;2022-11-10T01:10:34;11.70;99.90
22436;DHT22;11385;50.822;4.324;2022-11-10T01:13:02;11.50;99.90
22436;DHT22;11385;50.822;4.324;2022-11-10T01:15:28;11.50;99.90
22436;DHT22;11385;50.822;4.324;2022-11-10T01:17:55;11.50;99.90
22436;DHT22;11385;50.822;4.324;2022-11-10T01:20:23;11.50;99.90
22436;DHT22;11385;50.822;4.324;2022-11-10T01:22:50;11.40;99.90
22436;DHT22;11385;50.822;4.324;2022-11-10T01:25:17;11.20;99.90
22436;DHT22;11385;50.822;4.324;2022-11-10T01:27:44;11.30;99.90
22436;DHT22;11385;50.822;4.324;2022-11-10T01:30:11;11.30;99.90
22436;DHT22;11385;50.822;4.324;2022-11-10T01:32:38;11.10;99.90
22436;DHT22;11385;50.822;4.324;2022-11-10T01:35:05;11.30;99.90
22436;DHT22;11385;50.822;4.324;2022-11-10T01:37:32;11.30;99.90
22436;DHT22;11385;50.822;4.324;2022-11-10T01:39:58;11.40;99.90
22436;DHT22;11385;50.822;4.324;2022-11-10T01:42:36;11.40;99.90
22436;DHT22;11385;50.822;4.324;2022-11-10T01:47:33;11.50;99.90
22436;DHT22;11385;50.822;4.324;2022-11-10T01:50:00;11.50;99.90
22436;DHT22;11385;50.822;4.324;2022-11-10T01:52:27;11.40;99.90
22436;DHT22;11385;50.822;4.324;2022-11-10T01:54:53;11.40;99.90
22436;DHT22;11385;50.822;4.324;2022-11-10T01:57:20;11.40;99.90
22436;DHT22;11385;50.822;4.324;2022-11-10T01:59:48;11.40;99.90
22436;DHT22;11385;50.822;4.324;2022-11-10T02:02:37;11.30;99.90
22436;DHT22;11385;50.822;4.324;2022-11-10T02:05:04;11.10;99.90
22436;DHT22;11385;50.822;4.324;2022-11-10T02:07:31;11.10;99.90
22436;DHT22;11385;50.822;4.324;2022-11-10T02:10:01;11.10;99.90
22436;DHT22;11385;50.822;4.324;2022-11-10T02:12:30;11.10;99.90
22436;DHT22;11385;50.822;4.324;2022-11-10T02:15:04;11.10;99.90
22436;DHT22;11385;50.822;4.324;2022-11-10T02:17:31;11.30;99.90
22436;DHT22;11385;50.822;4.324;2022-11-10T02:20:01;11.30;99.90
22436;DHT22;11385;50.822;4.324;2022-11-10T02:22:30;11.30;99.90
22436;DHT22;11385;50.822;4.324;2022-11-10T02:24:58;11.30;99.90
22436;DHT22;11385;50.822;4.324;2022-11-10T02:27:24;11.20;99.90
22436;DHT22;11385;50.822;4.324;2022-11-10T02:29:51;11.20;99.90
22436;DHT22;11385;50.822;4.324;2022-11-10T02:32:18;11.10;99.90
22436;DHT22;11385;50.822;4.324;2022-11-10T02:34:44;11.10;99.90
22436;DHT22;11385;50.822;4.324;2022-11-10T02:37:11;11.00;99.90
22436;DHT22;11385;50.822;4.324;2022-11-10T02:39:38;11.00;99.90
22436;DHT22;11385;50.822;4.324;2022-11-10T02:42:05;10.90;99.90
22436;DHT22;11385;50.822;4.324;2022-11-10T02:44:36;10.80;99.90
22436;DHT22;11385;50.822;4.324;2022-11-10T02:47:03;10.80;99.90
22436;DHT22;11385;50.822;4.324;2022-11-10T02:49:30;10.80;99.90
22436;DHT22;11385;50.822;4.324;2022-11-10T02:51:57;10.70;99.90
22436;DHT22;11385;50.822;4.324;2022-11-10T02:54:24;10.80;99.90
22436;DHT22;11385;50.822;4.324;2022-11-10T02:56:51;10.80;99.90
22436;DHT22;11385;50.822;4.324;2022-11-10T02:59:18;10.60;99.90
22436;DHT22;11385;50.822;4.324;2022-11-10T03:01:44;10.60;99.90
22436;DHT22;11385;50.822;4.324;2022-11-10T03:04:11;10.60;99.90
22436;DHT22;11385;50.822;4.324;2022-11-10T03:06:40;10.70;99.90
22436;DHT22;11385;50.822;4.324;2022-11-10T03:09:07;10.60;99.90
22436;DHT22;11385;50.822;4.324;2022-11-10T03:11:33;10.60;99.90
22436;DHT22;11385;50.822;4.324;2022-11-10T03:14:01;10.60;99.90
22436;DHT22;11385;50.822;4.324;2022-11-10T03:16:29;10.60;99.90
22436;DHT22;11385;50.822;4.324;2022-11-10T03:18:56;10.50;99.90
22436;DHT22;11385;50.822;4.324;2022-11-10T03:21:24;10.60;99.90
22436;DHT22;11385;50.822;4.324;2022-11-10T03:23:50;10.50;99.90
22436;DHT22;11385;50.822;4.324;2022-11-10T03:26:17;10.50;99.90
22436;DHT22;11385;50.822;4.324;2022-11-10T03:28:44;10.60;99.90
22436;DHT22;11385;50.822;4.324;2022-11-10T03:31:10;10.60;99.90
22436;DHT22;11385;50.822;4.324;2022-11-10T03:33:39;10.70;99.90
22436;DHT22;11385;50.822;4.324;2022-11-10T03:36:07;10.60;99.90
22436;DHT22;11385;50.822;4.324;2022-11-10T03:38:34;10.50;99.90
22436;DHT22;11385;50.822;4.324;2022-11-10T03:41:02;10.60;99.90
22436;DHT22;11385;50.822;4.324;2022-11-10T03:43:29;10.60;99.90
22436;DHT22;11385;50.822;4.324;2022-11-10T03:45:55;10.70;99.90
22436;DHT22;11385;50.822;4.324;2022-11-10T03:48:22;10.80;99.90
22436;DHT22;11385;50.822;4.324;2022-11-10T03:50:49;10.70;99.90
22436;DHT22;11385;50.822;4.324;2022-11-10T03:53:16;10.50;99.90
22436;DHT22;11385;50.822;4.324;2022-11-10T03:55:43;10.40;99.90
22436;DHT22;11385;50.822;4.324;2022-11-10T03:58:09;10.40;99.90
22436;DHT22;11385;50.822;4.324;2022-11-10T04:00:36;10.40;99.90
22436;DHT22;11385;50.822;4.324;2022-11-10T04:03:03;10.50;99.90
22436;DHT22;11385;50.822;4.324;2022-11-10T04:05:29;10.50;99.90
22436;DHT22;11385;50.822;4.324;2022-11-10T04:08:02;10.50;99.90
22436;DHT22;11385;50.822;4.324;2022-11-10T04:10:35;10.60;99.90
22436;DHT22;11385;50.822;4.324;2022-11-10T04:13:01;10.60;99.90
22436;DHT22;11385;50.822;4.324;2022-11-10T04:15:34;10.60;99.90
22436;DHT22;11385;50.822;4.324;2022-11-10T04:18:07;10.60;99.90
22436;DHT22;11385;50.822;4.324;2022-11-10T04:20:39;10.70;99.90
22436;DHT22;11385;50.822;4.324;2022-11-10T04:23:06;10.70;99.90
22436;DHT22;11385;50.822;4.324;2022-11-10T04:25:38;10.60;99.90
22436;DHT22;11385;50.822;4.324;2022-11-10T04:28:07;10.60;99.90
22436;DHT22;11385;50.822;4.324;2022-11-10T04:30:33;10.50;99.90
22436;DHT22;11385;50.822;4.324;2022-11-10T04:33:00;10.40;99.90
22436;DHT22;11385;50.822;4.324;2022-11-10T04:35:26;10.30;99.90
22436;DHT22;11385;50.822;4.324;2022-11-10T04:37:53;10.40;99.90
22436;DHT22;11385;50.822;4.324;2022-11-10T04:40:20;10.30;99.90
22436;DHT22;11385;50.822;4.324;2022-11-10T04:42:47;10.30;99.90
22436;DHT22;11385;50.822;4.324;2022-11-10T04:45:14;10.40;99.90
22436;DHT22;11385;50.822;4.324;2022-11-10T04:47:41;10.30;99.90
22436;DHT22;11385;50.822;4.324;2022-11-10T04:50:08;10.40;99.90
22436;DHT22;11385;50.822;4.324;2022-11-10T04:52:35;10.40;99.90
22436;DHT22;11385;50.822;4.324;2022-11-10T04:55:01;10.30;99.90
22436;DHT22;11385;50.822;4.324;2022-11-10T04:57:28;10.40;99.90
22436;DHT22;11385;50.822;4.324;2022-11-10T04:59:54;10.40;99.90
22436;DHT22;11385;50.822;4.324;2022-11-10T05:02:21;10.40;99.90
22436;DHT22;11385;50.822;4.324;2022-11-10T05:04:47;10.30;99.90
22436;DHT22;11385;50.822;4.324;2022-11-10T05:07:14;10.30;99.90
22436;DHT22;11385;50.822;4.324;2022-11-10T05:09:41;10.40;99.90
22436;DHT22;11385;50.822;4.324;2022-11-10T05:12:08;10.40;99.90
22436;DHT22;11385;50.822;4.324;2022-11-10T05:14:34;10.40;99.90
22436;DHT22;11385;50.822;4.324;2022-11-10T05:17:01;10.40;99.90
22436;DHT22;11385;50.822;4.324;2022-11-10T05:19:27;10.40;99.90
22436;DHT22;11385;50.822;4.324;2022-11-10T05:21:54;10.40;99.90
22436;DHT22;11385;50.822;4.324;2022-11-10T05:24:21;10.40;99.90
22436;DHT22;11385;50.822;4.324;2022-11-10T05:26:47;10.40;99.90
22436;DHT22;11385;50.822;4.324;2022-11-10T05:29:14;10.30;99.90
22436;DHT22;11385;50.822;4.324;2022-11-10T05:31:41;10.20;99.90
22436;DHT22;11385;50.822;4.324;2022-11-10T05:34:07;10.20;99.90
22436;DHT22;11385;50.822;4.324;2022-11-10T05:36:34;10.10;99.90
22436;DHT22;11385;50.822;4.324;2022-11-10T05:39:00;10.10;99.90
22436;DHT22;11385;50.822;4.324;2022-11-10T05:41:28;10.10;99.90
22436;DHT22;11385;50.822;4.324;2022-11-10T05:43:55;10.20;99.90
22436;DHT22;11385;50.822;4.324;2022-11-10T05:46:21;10.20;99.90
22436;DHT22;11385;50.822;4.324;2022-11-10T05:48:48;10.20;99.90
22436;DHT22;11385;50.822;4.324;2022-11-10T05:51:15;10.20;99.90
22436;DHT22;11385;50.822;4.324;2022-11-10T05:53:41;10.20;99.90
22436;DHT22;11385;50.822;4.324;2022-11-10T05:56:08;10.20;99.90
22436;DHT22;11385;50.822;4.324;2022-11-10T05:58:35;10.20;99.90
22436;DHT22;11385;50.822;4.324;2022-11-10T06:01:01;10.20;99.90
22436;DHT22;11385;50.822;4.324;2022-11-10T06:03:28;10.10;99.90
22436;DHT22;11385;50.822;4.324;2022-11-10T06:05:54;10.20;99.90
22436;DHT22;11385;50.822;4.324;2022-11-10T06:08:22;10.10;99.90
22436;DHT22;11385;50.822;4.324;2022-11-10T06:10:48;10.20;99.90
22436;DHT22;11385;50.822;4.324;2022-11-10T06:13:15;10.10;99.90
22436;DHT22;11385;50.822;4.324;2022-11-10T06:15:42;10.10;99.90
22436;DHT22;11385;50.822;4.324;2022-11-10T06:18:08;10.10;99.90
22436;DHT22;11385;50.822;4.324;2022-11-10T06:20:36;10.10;99.90
22436;DHT22;11385;50.822;4.324;2022-11-10T06:23:06;10.10;99.90
22436;DHT22;11385;50.822;4.324;2022-11-10T06:25:35;10.10;99.90
22436;DHT22;11385;50.822;4.324;2022-11-10T06:28:04;10.10;99.90
22436;DHT22;11385;50.822;4.324;2022-11-10T06:30:33;10.20;99.90
22436;DHT22;11385;50.822;4.324;2022-11-10T06:33:00;10.10;99.90
22436;DHT22;11385;50.822;4.324;2022-11-10T06:35:27;10.10;99.90
22436;DHT22;11385;50.822;4.324;2022-11-10T06:38:02;10.00;99.90
22436;DHT22;11385;50.822;4.324;2022-11-10T06:40:30;10.00;99.90
22436;DHT22;11385;50.822;4.324;2022-11-10T06:42:57;10.00;99.90
22436;DHT22;11385;50.822;4.324;2022-11-10T06:45:27;10.10;99.90
22436;DHT22;11385;50.822;4.324;2022-11-10T06:48:04;10.10;99.90
22436;DHT22;11385;50.822;4.324;2022-11-10T06:50:32;10.10;99.90
22436;DHT22;11385;50.822;4.324;2022-11-10T06:53:00;10.00;99.90
22436;DHT22;11385;50.822;4.324;2022-11-10T06:55:28;10.10;99.90
22436;DHT22;11385;50.822;4.324;2022-11-10T06:57:55;10.10;99.90
22436;DHT22;11385;50.822;4.324;2022-11-10T07:00:23;10.10;99.90
22436;DHT22;11385;50.822;4.324;2022-11-10T07:02:57;10.10;99.90
22436;DHT22;11385;50.822;4.324;2022-11-10T07:05:24;10.10;99.90
22436;DHT22;11385;50.822;4.324;2022-11-10T07:07:51;10.10;99.90
22436;DHT22;11385;50.822;4.324;2022-11-10T07:10:17;10.30;99.90
22436;DHT22;11385;50.822;4.324;2022-11-10T07:12:44;10.20;99.90
22436;DHT22;11385;50.822;4.324;2022-11-10T07:15:11;10.20;99.90
22436;DHT22;11385;50.822;4.324;2022-11-10T07:17:39;10.20;99.90
22436;DHT22;11385;50.822;4.324;2022-11-10T07:20:07;10.20;99.90
22436;DHT22;11385;50.822;4.324;2022-11-10T07:22:34;10.20;99.90
22436;DHT22;11385;50.822;4.324;2022-11-10T07:25:01;10.10;99.90
22436;DHT22;11385;50.822;4.324;2022-11-10T07:27:27;10.10;99.90
22436;DHT22;11385;50.822;4.324;2022-11-10T07:29:54;10.10;99.90
22436;DHT22;11385;50.822;4.324;2022-11-10T07:32:21;10.00;99.90
22436;DHT22;11385;50.822;4.324;2022-11-10T07:34:47;10.00;99.90
22436;DHT22;11385;50.822;4.324;2022-11-10T07:37:15;10.10;99.90
22436;DHT22;11385;50.822;4.324;2022-11-10T07:39:42;10.10;99.90
22436;DHT22;11385;50.822;4.324;2022-11-10T07:42:08;10.10;99.90
22436;DHT22;11385;50.822;4.324;2022-11-10T07:44:35;10.10;99.90
22436;DHT22;11385;50.822;4.324;2022-11-10T07:47:03;10.20;99.90
22436;DHT22;11385;50.822;4.324;2022-11-10T07:49:29;10.30;99.90
22436;DHT22;11385;50.822;4.324;2022-11-10T07:51:56;10.30;99.90
22436;DHT22;11385;50.822;4.324;2022-11-10T07:54:23;10.40;99.90
22436;DHT22;11385;50.822;4.324;2022-11-10T07:56:49;10.50;99.90
22436;DHT22;11385;50.822;4.324;2022-11-10T07:59:16;10.60;99.90
22436;DHT22;11385;50.822;4.324;2022-11-10T08:01:44;10.60;99.90
22436;DHT22;11385;50.822;4.324;2022-11-10T08:04:11;10.70;99.90
22436;DHT22;11385;50.822;4.324;2022-11-10T08:06:38;10.60;99.90
22436;DHT22;11385;50.822;4.324;2022-11-10T08:09:04;10.60;99.90
22436;DHT22;11385;50.822;4.324;2022-11-10T08:11:31;10.60;99.90
22436;DHT22;11385;50.822;4.324;2022-11-10T08:13:58;10.70;99.90
22436;DHT22;11385;50.822;4.324;2022-11-10T08:16:24;10.70;99.90
22436;DHT22;11385;50.822;4.324;2022-11-10T08:18:51;10.70;99.90
22436;DHT22;11385;50.822;4.324;2022-11-10T08:21:17;11.00;99.90
22436;DHT22;11385;50.822;4.324;2022-11-10T08:23:45;11.20;99.90
22436;DHT22;11385;50.822;4.324;2022-11-10T08:26:12;11.10;99.90
22436;DHT22;11385;50.822;4.324;2022-11-10T08:28:40;11.10;99.90
22436;DHT22;11385;50.822;4.324;2022-11-10T08:31:07;11.20;99.90
22436;DHT22;11385;50.822;4.324;2022-11-10T08:33:33;11.30;99.90
22436;DHT22;11385;50.822;4.324;2022-11-10T08:36:00;11.20;99.90
22436;DHT22;11385;50.822;4.324;2022-11-10T08:38:27;11.20;99.90
22436;DHT22;11385;50.822;4.324;2022-11-10T08:40:55;11.10;99.90
22436;DHT22;11385;50.822;4.324;2022-11-10T08:43:22;11.30;99.90
22436;DHT22;11385;50.822;4.324;2022-11-10T08:45:49;11.30;99.90
22436;DHT22;11385;50.822;4.324;2022-11-10T08:48:17;11.50;99.90
22436;DHT22;11385;50.822;4.324;2022-11-10T08:50:45;11.40;99.90
22436;DHT22;11385;50.822;4.324;2022-11-10T08:53:14;11.40;99.90
22436;DHT22;11385;50.822;4.324;2022-11-10T08:55:42;11.40;99.90
22436;DHT22;11385;50.822;4.324;2022-11-10T08:58:14;11.60;99.90
22436;DHT22;11385;50.822;4.324;2022-11-10T09:00:41;11.60;99.90
22436;DHT22;11385;50.822;4.324;2022-11-10T09:03:11;11.70;99.90
22436;DHT22;11385;50.822;4.324;2022-11-10T09:05:40;11.80;99.90
22436;DHT22;11385;50.822;4.324;2022-11-10T09:08:07;11.70;99.90
22436;DHT22;11385;50.822;4.324;2022-11-10T09:10:36;11.70;99.90
22436;DHT22;11385;50.822;4.324;2022-11-10T09:13:04;11.70;99.90
22436;DHT22;11385;50.822;4.324;2022-11-10T09:15:32;11.70;99.90
22436;DHT22;11385;50.822;4.324;2022-11-10T09:18:00;11.70;99.90
22436;DHT22;11385;50.822;4.324;2022-11-10T09:20:29;11.80;99.90
22436;DHT22;11385;50.822;4.324;2022-11-10T09:22:56;11.90;99.90
22436;DHT22;11385;50.822;4.324;2022-11-10T09:25:23;12.00;99.90
22436;DHT22;11385;50.822;4.324;2022-11-10T09:27:49;12.10;99.90
22436;DHT22;11385;50.822;4.324;2022-11-10T09:30:16;12.20;99.90
22436;DHT22;11385;50.822;4.324;2022-11-10T09:32:42;12.30;99.90
22436;DHT22;11385;50.822;4.324;2022-11-10T09:35:11;12.20;99.90
22436;DHT22;11385;50.822;4.324;2022-11-10T09:37:39;12.30;99.90
22436;DHT22;11385;50.822;4.324;2022-11-10T09:40:08;12.30;99.90
22436;DHT22;11385;50.822;4.324;2022-11-10T09:42:39;12.40;99.90
22436;DHT22;11385;50.822;4.324;2022-11-10T09:45:15;12.30;99.90
22436;DHT22;11385;50.822;4.324;2022-11-10T09:47:59;12.30;99.90
22436;DHT22;11385;50.822;4.324;2022-11-10T09:50:48;12.50;99.90
22436;DHT22;11385;50.822;4.324;2022-11-10T09:53:20;12.50;99.90
22436;DHT22;11385;50.822;4.324;2022-11-10T09:55:50;12.60;99.90
22436;DHT22;11385;50.822;4.324;2022-11-10T09:58:20;12.70;99.90
22436;DHT22;11385;50.822;4.324;2022-11-10T10:00:56;12.90;99.90
22436;DHT22;11385;50.822;4.324;2022-11-10T10:03:23;13.00;99.90
22436;DHT22;11385;50.822;4.324;2022-11-10T10:05:58;12.90;99.90
22436;DHT22;11385;50.822;4.324;2022-11-10T10:08:44;12.90;99.90
22436;DHT22;11385;50.822;4.324;2022-11-10T10:11:18;12.80;99.90
22436;DHT22;11385;50.822;4.324;2022-11-10T10:13:56;12.80;99.90
22436;DHT22;11385;50.822;4.324;2022-11-10T10:22:12;13.20;99.90
22436;DHT22;11385;50.822;4.324;2022-11-10T10:24:36;13.30;99.90
22436;DHT22;11385;50.822;4.324;2022-11-10T10:27:07;13.30;99.90
22436;DHT22;11385;50.822;4.324;2022-11-10T10:29:41;13.30;99.90
22436;DHT22;11385;50.822;4.324;2022-11-10T10:32:14;13.50;99.90
22436;DHT22;11385;50.822;4.324;2022-11-10T10:34:44;13.60;99.90
22436;DHT22;11385;50.822;4.324;2022-11-10T10:37:24;13.60;99.90
22436;DHT22;11385;50.822;4.324;2022-11-10T10:39:53;13.70;99.90
22436;DHT22;11385;50.822;4.324;2022-11-10T10:42:30;13.70;99.90
22436;DHT22;11385;50.822;4.324;2022-11-10T10:47:37;13.50;99.90
22436;DHT22;11385;50.822;4.324;2022-11-10T10:50:24;13.60;99.90
22436;DHT22;11385;50.822;4.324;2022-11-10T10:55:29;13.60;99.90
22436;DHT22;11385;50.822;4.324;2022-11-10T10:58:00;13.60;99.90
22436;DHT22;11385;50.822;4.324;2022-11-10T11:00:26;13.70;99.90
22436;DHT22;11385;50.822;4.324;2022-11-10T11:03:13;13.70;99.90
22436;DHT22;11385;50.822;4.324;2022-11-10T11:08:23;14.00;99.90
22436;DHT22;11385;50.822;4.324;2022-11-10T11:10:50;14.00;99.90
22436;DHT22;11385;50.822;4.324;2022-11-10T11:13:23;14.20;99.90
22436;DHT22;11385;50.822;4.324;2022-11-10T11:15:57;14.30;99.90
22436;DHT22;11385;50.822;4.324;2022-11-10T11:18:26;14.20;99.90
22436;DHT22;11385;50.822;4.324;2022-11-10T11:21:08;14.10;99.90
22436;DHT22;11385;50.822;4.324;2022-11-10T11:23:49;14.20;99.90
22436;DHT22;11385;50.822;4.324;2022-11-10T11:26:35;14.10;99.90
22436;DHT22;11385;50.822;4.324;2022-11-10T11:29:41;14.10;99.90
22436;DHT22;11385;50.822;4.324;2022-11-10T11:32:28;14.20;99.90
22436;DHT22;11385;50.822;4.324;2022-11-10T11:34:48;14.40;99.90
22436;DHT22;11385;50.822;4.324;2022-11-10T11:37:20;14.30;99.90
22436;DHT22;11385;50.822;4.324;2022-11-10T11:42:45;14.50;99.90
22436;DHT22;11385;50.822;4.324;2022-11-10T11:45:17;14.60;99.90
22436;DHT22;11385;50.822;4.324;2022-11-10T11:50:36;14.50;99.90
22436;DHT22;11385;50.822;4.324;2022-11-10T11:56:10;14.50;99.90
22436;DHT22;11385;50.822;4.324;2022-11-10T11:58:55;14.70;99.90
22436;DHT22;11385;50.822;4.324;2022-11-10T12:01:42;14.80;99.90
22436;DHT22;11385;50.822;4.324;2022-11-10T12:04:44;14.70;99.90
22436;DHT22;11385;50.822;4.324;2022-11-10T12:07:12;14.70;99.90
22436;DHT22;11385;50.822;4.324;2022-11-10T12:09:42;14.80;99.90
22436;DHT22;11385;50.822;4.324;2022-11-10T12:12:41;14.80;99.90
22436;DHT22;11385;50.822;4.324;2022-11-10T12:17:47;15.10;99.90
22436;DHT22;11385;50.822;4.324;2022-11-10T12:20:19;15.00;99.90
22436;DHT22;11385;50.822;4.324;2022-11-10T12:22:50;15.10;99.90
22436;DHT22;11385;50.822;4.324;2022-11-10T12:25:23;15.20;99.90
22436;DHT22;11385;50.822;4.324;2022-11-10T12:27:53;15.30;99.90
22436;DHT22;11385;50.822;4.324;2022-11-10T12:30:20;15.50;99.90
22436;DHT22;11385;50.822;4.324;2022-11-10T12:32:53;15.40;99.90
22436;DHT22;11385;50.822;4.324;2022-11-10T12:35:25;15.50;99.90
22436;DHT22;11385;50.822;4.324;2022-11-10T12:37:58;15.80;99.90
22436;DHT22;11385;50.822;4.324;2022-11-10T12:40:30;15.70;99.90
22436;DHT22;11385;50.822;4.324;2022-11-10T12:43:01;15.80;99.90
22436;DHT22;11385;50.822;4.324;2022-11-10T12:45:32;15.80;99.90
22436;DHT22;11385;50.822;4.324;2022-11-10T12:48:00;15.90;99.90
22436;DHT22;11385;50.822;4.324;2022-11-10T12:50:56;15.90;99.90
22436;DHT22;11385;50.822;4.324;2022-11-10T12:53:28;15.80;99.90
22436;DHT22;11385;50.822;4.324;2022-11-10T12:56:00;15.70;99.90
22436;DHT22;11385;50.822;4.324;2022-11-10T12:58:27;15.60;99.90
22436;DHT22;11385;50.822;4.324;2022-11-10T13:00:59;15.50;99.90
22436;DHT22;11385;50.822;4.324;2022-11-10T13:03:31;15.60;99.90
22436;DHT22;11385;50.822;4.324;2022-11-10T13:06:01;15.50;99.90
22436;DHT22;11385;50.822;4.324;2022-11-10T13:08:32;15.50;99.90
22436;DHT22;11385;50.822;4.324;2022-11-10T13:11:03;15.50;99.90
22436;DHT22;11385;50.822;4.324;2022-11-10T13:16:07;15.60;99.90
22436;DHT22;11385;50.822;4.324;2022-11-10T13:18:51;15.60;99.90
22436;DHT22;11385;50.822;4.324;2022-11-10T13:21:43;15.50;99.90
22436;DHT22;11385;50.822;4.324;2022-11-10T13:24:18;15.60;99.90
22436;DHT22;11385;50.822;4.324;2022-11-10T13:26:52;15.70;99.90
22436;DHT22;11385;50.822;4.324;2022-11-10T13:32:35;15.70;99.90
22436;DHT22;11385;50.822;4.324;2022-11-10T13:37:43;15.80;99.90
22436;DHT22;11385;50.822;4.324;2022-11-10T13:40:32;15.60;99.90
22436;DHT22;11385;50.822;4.324;2022-11-10T13:45:41;15.40;99.90
22436;DHT22;11385;50.822;4.324;2022-11-10T13:48:31;15.40;99.90
22436;DHT22;11385;50.822;4.324;2022-11-10T13:51:06;15.50;99.90
22436;DHT22;11385;50.822;4.324;2022-11-10T13:54:31;15.60;99.90
22436;DHT22;11385;50.822;4.324;2022-11-10T13:59:20;15.70;99.90
22436;DHT22;11385;50.822;4.324;2022-11-10T14:01:47;15.60;99.90
22436;DHT22;11385;50.822;4.324;2022-11-10T14:06:56;15.70;99.90
22436;DHT22;11385;50.822;4.324;2022-11-10T14:09:32;15.90;99.90
22436;DHT22;11385;50.822;4.324;2022-11-10T14:12:06;16.00;99.90
22436;DHT22;11385;50.822;4.324;2022-11-10T14:14:46;15.80;99.90
22436;DHT22;11385;50.822;4.324;2022-11-10T14:17:18;15.60;99.90
22436;DHT22;11385;50.822;4.324;2022-11-10T14:19:46;15.70;99.90
22436;DHT22;11385;50.822;4.324;2022-11-10T14:22:21;15.80;99.90
22436;DHT22;11385;50.822;4.324;2022-11-10T14:25:03;16.00;99.90
22436;DHT22;11385;50.822;4.324;2022-11-10T14:27:33;15.90;99.90
22436;DHT22;11385;50.822;4.324;2022-11-10T14:30:07;15.90;99.90
22436;DHT22;11385;50.822;4.324;2022-11-10T14:32:36;15.80;99.90
22436;DHT22;11385;50.822;4.324;2022-11-10T14:35:02;15.90;99.90
22436;DHT22;11385;50.822;4.324;2022-11-10T14:37:30;15.80;99.90
22436;DHT22;11385;50.822;4.324;2022-11-10T14:39:59;15.70;99.90
22436;DHT22;11385;50.822;4.324;2022-11-10T14:42:34;15.80;99.90
22436;DHT22;11385;50.822;4.324;2022-11-10T14:45:16;15.80;99.90
22436;DHT22;11385;50.822;4.324;2022-11-10T14:47:49;15.70;99.90
22436;DHT22;11385;50.822;4.324;2022-11-10T14:50:24;15.50;99.90
22436;DHT22;11385;50.822;4.324;2022-11-10T14:52:55;15.50;99.90
22436;DHT22;11385;50.822;4.324;2022-11-10T14:55:25;15.40;99.90
22436;DHT22;11385;50.822;4.324;2022-11-10T14:57:59;15.30;99.90
22436;DHT22;11385;50.822;4.324;2022-11-10T15:00:26;15.30;99.90
22436;DHT22;11385;50.822;4.324;2022-11-10T15:02:55;15.20;99.90
22436;DHT22;11385;50.822;4.324;2022-11-10T15:05:23;15.40;99.90
22436;DHT22;11385;50.822;4.324;2022-11-10T15:07:53;15.40;99.90
22436;DHT22;11385;50.822;4.324;2022-11-10T15:10:25;15.60;99.90
22436;DHT22;11385;50.822;4.324;2022-11-10T15:13:00;15.40;99.90
22436;DHT22;11385;50.822;4.324;2022-11-10T15:15:28;15.40;99.90
22436;DHT22;11385;50.822;4.324;2022-11-10T15:17:54;15.20;99.90
22436;DHT22;11385;50.822;4.324;2022-11-10T15:20:33;15.20;99.90
22436;DHT22;11385;50.822;4.324;2022-11-10T15:23:02;15.10;99.90
22436;DHT22;11385;50.822;4.324;2022-11-10T15:25:34;15.00;99.90
22436;DHT22;11385;50.822;4.324;2022-11-10T15:28:04;15.00;99.90
22436;DHT22;11385;50.822;4.324;2022-11-10T15:30:31;14.90;99.90
22436;DHT22;11385;50.822;4.324;2022-11-10T15:32:58;14.90;99.90
22436;DHT22;11385;50.822;4.324;2022-11-10T15:35:28;14.90;99.90
22436;DHT22;11385;50.822;4.324;2022-11-10T15:38:03;14.80;99.90
22436;DHT22;11385;50.822;4.324;2022-11-10T15:40:34;14.60;99.90
22436;DHT22;11385;50.822;4.324;2022-11-10T15:43:09;14.50;99.90
22436;DHT22;11385;50.822;4.324;2022-11-10T15:45:36;14.50;99.90
22436;DHT22;11385;50.822;4.324;2022-11-10T15:48:04;14.40;99.90
22436;DHT22;11385;50.822;4.324;2022-11-10T15:50:33;14.20;99.90
22436;DHT22;11385;50.822;4.324;2022-11-10T15:53:03;14.10;99.90
22436;DHT22;11385;50.822;4.324;2022-11-10T15:55:30;14.20;99.90
22436;DHT22;11385;50.822;4.324;2022-11-10T15:57:58;14.10;99.90
22436;DHT22;11385;50.822;4.324;2022-11-10T16:00:25;14.20;99.90
22436;DHT22;11385;50.822;4.324;2022-11-10T16:02:52;14.00;99.90
22436;DHT22;11385;50.822;4.324;2022-11-10T16:05:18;13.90;99.90
22436;DHT22;11385;50.822;4.324;2022-11-10T16:07:45;13.90;99.90
22436;DHT22;11385;50.822;4.324;2022-11-10T16:10:12;14.00;99.90
22436;DHT22;11385;50.822;4.324;2022-11-10T16:12:38;14.00;99.90
22436;DHT22;11385;50.822;4.324;2022-11-10T16:15:05;13.80;99.90
22436;DHT22;11385;50.822;4.324;2022-11-10T16:17:35;13.90;99.90
22436;DHT22;11385;50.822;4.324;2022-11-10T16:20:01;13.90;99.90
22436;DHT22;11385;50.822;4.324;2022-11-10T16:22:28;13.80;99.90
22436;DHT22;11385;50.822;4.324;2022-11-10T16:24:54;13.90;99.90
22436;DHT22;11385;50.822;4.324;2022-11-10T16:27:21;13.80;99.90
22436;DHT22;11385;50.822;4.324;2022-11-10T16:29:47;13.80;99.90